sensor_id;sensor_type;location;lat;lon;timestamp;pressure;altitude;pressure_sealevel;temperature;humidity
62038;BME280;47991;42.974;12.082;2022-12-05T00:00:54;97932.70;;;10.20;91.58
62038;BME280;47991;42.974;12.082;2022-12-05T00:03:21;97938.77;;;10.17;92.01
62038;BME280;47991;42.974;12.082;2022-12-05T00:05:48;97931.86;;;10.19;92.06
62038;BME280;47991;42.974;12.082;2022-12-05T00:08:15;97936.95;;;10.20;92.00
62038;BME280;47991;42.974;12.082;2022-12-05T00:10:43;97936.02;;;10.21;92.10
62038;BME280;47991;42.974;12.082;2022-12-05T00:13:10;97940.54;;;10.25;92.00
62038;BME280;47991;42.974;12.082;2022-12-05T00:15:40;97940.00;;;10.25;92.10
62038;BME280;47991;42.974;12.082;2022-12-05T00:18:07;97942.47;;;10.26;92.30
62038;BME280;47991;42.974;12.082;2022-12-05T00:20:34;97937.02;;;10.25;91.78
62038;BME280;47991;42.974;12.082;2022-12-05T00:23:00;97937.58;;;10.23;91.92
62038;BME280;47991;42.974;12.082;2022-12-05T00:25:27;97943.16;;;10.19;92.03
62038;BME280;47991;42.974;12.082;2022-12-05T00:27:53;97947.73;;;10.13;92.78
62038;BME280;47991;42.974;12.082;2022-12-05T00:30:20;97935.15;;;9.91;93.51
62038;BME280;47991;42.974;12.082;2022-12-05T00:32:46;97935.09;;;9.78;94.27
62038;BME280;47991;42.974;12.082;2022-12-05T00:35:13;97941.14;;;9.76;94.68
62038;BME280;47991;42.974;12.082;2022-12-05T00:37:39;97947.52;;;9.75;94.82
62038;BME280;47991;42.974;12.082;2022-12-05T00:40:07;97962.91;;;9.82;93.97
62038;BME280;47991;42.974;12.082;2022-12-05T00:42:34;97975.52;;;9.86;93.76
62038;BME280;47991;42.974;12.082;2022-12-05T00:45:00;97971.80;;;9.86;94.16
62038;BME280;47991;42.974;12.082;2022-12-05T00:47:27;97971.59;;;9.88;94.18
62038;BME280;47991;42.974;12.082;2022-12-05T00:49:53;97971.04;;;9.89;94.15
62038;BME280;47991;42.974;12.082;2022-12-05T00:52:20;97965.05;;;9.89;94.38
62038;BME280;47991;42.974;12.082;2022-12-05T00:54:46;97955.32;;;9.81;95.92
62038;BME280;47991;42.974;12.082;2022-12-05T00:57:13;97950.05;;;9.80;95.98
62038;BME280;47991;42.974;12.082;2022-12-05T00:59:40;97941.79;;;9.79;96.86
62038;BME280;47991;42.974;12.082;2022-12-05T01:02:06;97927.80;;;9.81;96.13
62038;BME280;47991;42.974;12.082;2022-12-05T01:04:33;97932.65;;;9.85;95.57
62038;BME280;47991;42.974;12.082;2022-12-05T01:07:00;97937.85;;;9.88;95.34
62038;BME280;47991;42.974;12.082;2022-12-05T01:09:27;97952.52;;;9.89;95.06
62038;BME280;47991;42.974;12.082;2022-12-05T01:11:54;97953.74;;;9.89;95.33
62038;BME280;47991;42.974;12.082;2022-12-05T01:14:22;97953.50;;;9.92;94.90
62038;BME280;47991;42.974;12.082;2022-12-05T01:16:52;97948.08;;;9.97;94.83
62038;BME280;47991;42.974;12.082;2022-12-05T01:19:26;97948.54;;;10.00;94.90
62038;BME280;47991;42.974;12.082;2022-12-05T01:21:54;97943.35;;;10.03;94.87
62038;BME280;47991;42.974;12.082;2022-12-05T01:24:21;97946.62;;;10.07;94.76
62038;BME280;47991;42.974;12.082;2022-12-05T01:26:48;97952.45;;;10.06;94.76
62038;BME280;47991;42.974;12.082;2022-12-05T01:29:18;97955.54;;;10.03;95.82
62038;BME280;47991;42.974;12.082;2022-12-05T01:31:45;97959.20;;;9.97;96.08
62038;BME280;47991;42.974;12.082;2022-12-05T01:34:15;97961.23;;;10.01;95.88
62038;BME280;47991;42.974;12.082;2022-12-05T01:36:42;97956.42;;;10.03;95.72
62038;BME280;47991;42.974;12.082;2022-12-05T01:39:10;97964.23;;;10.09;94.88
62038;BME280;47991;42.974;12.082;2022-12-05T01:41:41;97963.66;;;10.11;95.48
62038;BME280;47991;42.974;12.082;2022-12-05T01:46:43;97972.15;;;10.18;94.57
62038;BME280;47991;42.974;12.082;2022-12-05T01:49:18;97972.64;;;10.20;94.48
62038;BME280;47991;42.974;12.082;2022-12-05T01:51:48;97970.88;;;10.20;94.57
62038;BME280;47991;42.974;12.082;2022-12-05T01:54:16;97974.77;;;10.19;94.91
62038;BME280;47991;42.974;12.082;2022-12-05T01:57:01;97973.41;;;10.17;94.82
62038;BME280;47991;42.974;12.082;2022-12-05T01:59:33;97963.27;;;10.13;94.74
62038;BME280;47991;42.974;12.082;2022-12-05T02:02:02;97969.35;;;10.09;94.99
62038;BME280;47991;42.974;12.082;2022-12-05T02:04:30;97966.29;;;10.12;94.85
62038;BME280;47991;42.974;12.082;2022-12-05T02:07:00;97960.35;;;10.08;95.17
62038;BME280;47991;42.974;12.082;2022-12-05T02:09:27;97963.97;;;10.13;94.79
62038;BME280;47991;42.974;12.082;2022-12-05T02:11:57;97956.13;;;10.08;95.20
62038;BME280;47991;42.974;12.082;2022-12-05T02:14:31;97950.30;;;10.07;95.41
62038;BME280;47991;42.974;12.082;2022-12-05T02:17:12;97953.36;;;10.05;95.28
62038;BME280;47991;42.974;12.082;2022-12-05T02:20:22;97954.64;;;10.04;95.56
62038;BME280;47991;42.974;12.082;2022-12-05T02:28:18;97940.23;;;10.01;95.19
62038;BME280;47991;42.974;12.082;2022-12-05T02:33:34;97939.94;;;9.98;95.08
62038;BME280;47991;42.974;12.082;2022-12-05T02:36:39;97935.13;;;10.00;95.23
62038;BME280;47991;42.974;12.082;2022-12-05T02:39:17;97928.31;;;9.97;95.45
62038;BME280;47991;42.974;12.082;2022-12-05T02:41:51;97932.07;;;10.02;94.82
62038;BME280;47991;42.974;12.082;2022-12-05T02:46:52;97943.55;;;10.02;95.17
62038;BME280;47991;42.974;12.082;2022-12-05T02:49:22;97942.06;;;10.06;94.96
62038;BME280;47991;42.974;12.082;2022-12-05T02:51:56;97936.73;;;10.06;94.54
62038;BME280;47991;42.974;12.082;2022-12-05T02:54:30;97932.94;;;10.02;95.00
62038;BME280;47991;42.974;12.082;2022-12-05T02:56:59;97934.71;;;10.02;95.34
62038;BME280;47991;42.974;12.082;2022-12-05T02:59:27;97936.92;;;10.06;95.13
62038;BME280;47991;42.974;12.082;2022-12-05T03:01:54;97940.10;;;10.06;94.70
62038;BME280;47991;42.974;12.082;2022-12-05T03:04:23;97942.58;;;10.06;95.07
62038;BME280;47991;42.974;12.082;2022-12-05T03:06:59;97939.23;;;10.05;95.13
62038;BME280;47991;42.974;12.082;2022-12-05T03:10:02;97942.20;;;10.07;95.00
62038;BME280;47991;42.974;12.082;2022-12-05T03:12:31;97934.39;;;10.09;95.00
62038;BME280;47991;42.974;12.082;2022-12-05T03:15:07;97931.36;;;10.09;95.24
62038;BME280;47991;42.974;12.082;2022-12-05T03:17:45;97941.23;;;10.10;95.23
62038;BME280;47991;42.974;12.082;2022-12-05T03:20:24;97941.35;;;10.13;95.05
62038;BME280;47991;42.974;12.082;2022-12-05T03:22:59;97933.36;;;10.15;95.02
62038;BME280;47991;42.974;12.082;2022-12-05T03:25:45;97931.32;;;10.18;95.11
62038;BME280;47991;42.974;12.082;2022-12-05T03:29:11;97932.87;;;10.21;95.12
62038;BME280;47991;42.974;12.082;2022-12-05T03:31:51;97940.08;;;10.22;95.12
62038;BME280;47991;42.974;12.082;2022-12-05T03:34:36;97938.29;;;10.23;95.05
62038;BME280;47991;42.974;12.082;2022-12-05T03:37:25;97936.20;;;10.21;95.39
62038;BME280;47991;42.974;12.082;2022-12-05T03:40:08;97930.35;;;10.22;95.37
62038;BME280;47991;42.974;12.082;2022-12-05T03:42:41;97931.05;;;10.22;95.50
62038;BME280;47991;42.974;12.082;2022-12-05T03:45:16;97937.16;;;10.25;95.24
62038;BME280;47991;42.974;12.082;2022-12-05T03:47:55;97934.80;;;10.28;94.99
62038;BME280;47991;42.974;12.082;2022-12-05T03:50:28;97942.19;;;10.30;94.93
62038;BME280;47991;42.974;12.082;2022-12-05T03:53:02;97948.52;;;10.32;95.08
62038;BME280;47991;42.974;12.082;2022-12-05T03:55:33;97952.02;;;10.34;95.26
62038;BME280;47991;42.974;12.082;2022-12-05T03:58:17;97952.56;;;10.33;95.27
62038;BME280;47991;42.974;12.082;2022-12-05T04:00:48;97948.95;;;10.36;95.00
62038;BME280;47991;42.974;12.082;2022-12-05T04:03:21;97952.79;;;10.38;94.91
62038;BME280;47991;42.974;12.082;2022-12-05T04:05:56;97957.84;;;10.41;94.75
62038;BME280;47991;42.974;12.082;2022-12-05T04:08:31;97962.81;;;10.41;94.91
62038;BME280;47991;42.974;12.082;2022-12-05T04:11:03;97973.73;;;10.42;94.76
62038;BME280;47991;42.974;12.082;2022-12-05T04:13:38;97973.15;;;10.44;94.76
62038;BME280;47991;42.974;12.082;2022-12-05T04:16:14;97967.84;;;10.44;94.58
62038;BME280;47991;42.974;12.082;2022-12-05T04:21:42;97960.91;;;10.46;94.61
62038;BME280;47991;42.974;12.082;2022-12-05T04:24:21;97957.81;;;10.50;94.50
62038;BME280;47991;42.974;12.082;2022-12-05T04:30:15;97960.55;;;10.54;94.34
62038;BME280;47991;42.974;12.082;2022-12-05T04:32:46;97965.89;;;10.51;94.14
62038;BME280;47991;42.974;12.082;2022-12-05T04:35:36;97964.16;;;10.50;94.36
62038;BME280;47991;42.974;12.082;2022-12-05T04:38:10;97966.08;;;10.52;94.33
62038;BME280;47991;42.974;12.082;2022-12-05T04:40:47;97968.39;;;10.51;94.52
62038;BME280;47991;42.974;12.082;2022-12-05T04:43:15;97965.20;;;10.51;94.36
62038;BME280;47991;42.974;12.082;2022-12-05T04:45:44;97967.45;;;10.38;95.68
62038;BME280;47991;42.974;12.082;2022-12-05T04:48:14;97968.35;;;10.21;96.57
62038;BME280;47991;42.974;12.082;2022-12-05T04:50:44;97963.18;;;10.09;97.49
62038;BME280;47991;42.974;12.082;2022-12-05T04:53:13;97972.94;;;10.06;97.74
62038;BME280;47991;42.974;12.082;2022-12-05T04:55:47;97972.45;;;9.90;99.09
62038;BME280;47991;42.974;12.082;2022-12-05T04:58:22;97971.06;;;9.81;99.99
62038;BME280;47991;42.974;12.082;2022-12-05T05:03:54;97974.11;;;10.03;98.94
62038;BME280;47991;42.974;12.082;2022-12-05T05:06:24;97971.29;;;10.09;98.27
62038;BME280;47991;42.974;12.082;2022-12-05T05:08:55;97965.89;;;10.14;97.55
62038;BME280;47991;42.974;12.082;2022-12-05T05:11:27;97968.46;;;10.17;97.18
62038;BME280;47991;42.974;12.082;2022-12-05T05:13:54;97970.69;;;10.20;97.55
62038;BME280;47991;42.974;12.082;2022-12-05T05:16:41;97979.52;;;10.20;97.53
62038;BME280;47991;42.974;12.082;2022-12-05T05:19:09;97967.02;;;10.19;97.80
62038;BME280;47991;42.974;12.082;2022-12-05T05:21:39;97965.74;;;10.20;97.33
62038;BME280;47991;42.974;12.082;2022-12-05T05:24:08;97965.57;;;10.20;96.75
62038;BME280;47991;42.974;12.082;2022-12-05T05:26:38;97968.60;;;10.19;97.03
62038;BME280;47991;42.974;12.082;2022-12-05T05:29:06;97973.16;;;10.20;96.53
62038;BME280;47991;42.974;12.082;2022-12-05T05:31:36;97971.42;;;10.19;97.02
62038;BME280;47991;42.974;12.082;2022-12-05T05:34:03;97967.19;;;10.19;97.03
62038;BME280;47991;42.974;12.082;2022-12-05T05:36:30;97970.27;;;10.15;97.61
62038;BME280;47991;42.974;12.082;2022-12-05T05:38:58;97973.17;;;10.20;97.13
62038;BME280;47991;42.974;12.082;2022-12-05T05:41:31;97975.19;;;10.25;96.82
62038;BME280;47991;42.974;12.082;2022-12-05T05:43:59;97974.80;;;10.26;96.84
62038;BME280;47991;42.974;12.082;2022-12-05T05:46:28;97973.16;;;10.27;96.96
62038;BME280;47991;42.974;12.082;2022-12-05T05:48:55;97970.48;;;10.29;97.03
62038;BME280;47991;42.974;12.082;2022-12-05T05:51:22;97976.66;;;10.29;96.44
62038;BME280;47991;42.974;12.082;2022-12-05T05:53:58;97982.95;;;10.33;95.84
62038;BME280;47991;42.974;12.082;2022-12-05T05:56:25;97989.36;;;10.31;96.14
62038;BME280;47991;42.974;12.082;2022-12-05T05:59:00;97990.21;;;10.24;96.82
62038;BME280;47991;42.974;12.082;2022-12-05T06:01:28;97997.30;;;10.23;96.64
62038;BME280;47991;42.974;12.082;2022-12-05T06:03:55;98006.45;;;10.25;96.32
62038;BME280;47991;42.974;12.082;2022-12-05T06:06:22;98005.91;;;10.25;96.19
62038;BME280;47991;42.974;12.082;2022-12-05T06:08:49;97999.73;;;10.25;96.15
62038;BME280;47991;42.974;12.082;2022-12-05T06:11:25;98002.35;;;10.26;96.14
62038;BME280;47991;42.974;12.082;2022-12-05T06:13:53;98005.00;;;10.26;96.10
62038;BME280;47991;42.974;12.082;2022-12-05T06:16:21;98006.90;;;10.28;96.20
62038;BME280;47991;42.974;12.082;2022-12-05T06:18:48;98005.26;;;10.31;96.00
62038;BME280;47991;42.974;12.082;2022-12-05T06:21:17;98002.50;;;10.27;96.34
62038;BME280;47991;42.974;12.082;2022-12-05T06:23:44;98018.24;;;10.27;96.24
62038;BME280;47991;42.974;12.082;2022-12-05T06:26:14;98030.11;;;10.25;96.31
62038;BME280;47991;42.974;12.082;2022-12-05T06:28:41;98033.98;;;10.26;96.38
62038;BME280;47991;42.974;12.082;2022-12-05T06:31:09;98036.95;;;10.28;96.19
62038;BME280;47991;42.974;12.082;2022-12-05T06:33:36;98039.41;;;10.28;96.17
62038;BME280;47991;42.974;12.082;2022-12-05T06:36:09;98032.37;;;10.27;96.21
62038;BME280;47991;42.974;12.082;2022-12-05T06:38:36;98031.86;;;10.26;96.31
62038;BME280;47991;42.974;12.082;2022-12-05T06:41:08;98036.95;;;10.28;96.21
62038;BME280;47991;42.974;12.082;2022-12-05T06:43:36;98042.45;;;10.26;96.26
62038;BME280;47991;42.974;12.082;2022-12-05T06:46:08;98039.64;;;10.26;96.49
62038;BME280;47991;42.974;12.082;2022-12-05T06:48:35;98038.01;;;10.27;96.06
62038;BME280;47991;42.974;12.082;2022-12-05T06:51:02;98049.12;;;10.29;95.98
62038;BME280;47991;42.974;12.082;2022-12-05T06:53:29;98052.64;;;10.30;96.46
62038;BME280;47991;42.974;12.082;2022-12-05T06:55:56;98058.27;;;10.30;96.04
62038;BME280;47991;42.974;12.082;2022-12-05T06:58:23;98059.36;;;10.38;94.91
62038;BME280;47991;42.974;12.082;2022-12-05T07:00:51;98052.36;;;10.42;94.35
62038;BME280;47991;42.974;12.082;2022-12-05T07:03:37;98052.31;;;10.38;94.56
62038;BME280;47991;42.974;12.082;2022-12-05T07:06:05;98055.70;;;10.35;94.62
62038;BME280;47991;42.974;12.082;2022-12-05T07:08:33;98056.92;;;10.37;94.64
62038;BME280;47991;42.974;12.082;2022-12-05T07:11:01;98059.76;;;10.37;94.56
62038;BME280;47991;42.974;12.082;2022-12-05T07:13:28;98065.81;;;10.34;94.94
62038;BME280;47991;42.974;12.082;2022-12-05T07:15:54;98068.16;;;10.31;95.13
62038;BME280;47991;42.974;12.082;2022-12-05T07:18:21;98067.44;;;10.32;95.21
62038;BME280;47991;42.974;12.082;2022-12-05T07:20:59;98072.38;;;10.33;95.15
62038;BME280;47991;42.974;12.082;2022-12-05T07:23:26;98073.60;;;10.34;95.33
62038;BME280;47991;42.974;12.082;2022-12-05T07:25:53;98075.83;;;10.28;95.54
62038;BME280;47991;42.974;12.082;2022-12-05T07:28:20;98070.81;;;10.32;94.90
62038;BME280;47991;42.974;12.082;2022-12-05T07:30:47;98068.38;;;10.29;95.15
62038;BME280;47991;42.974;12.082;2022-12-05T07:33:13;98071.23;;;10.27;95.44
62038;BME280;47991;42.974;12.082;2022-12-05T07:35:40;98072.91;;;10.32;94.95
62038;BME280;47991;42.974;12.082;2022-12-05T07:38:07;98074.30;;;10.34;95.01
62038;BME280;47991;42.974;12.082;2022-12-05T07:40:33;98076.15;;;10.39;94.86
62038;BME280;47991;42.974;12.082;2022-12-05T07:43:00;98078.25;;;10.39;94.96
62038;BME280;47991;42.974;12.082;2022-12-05T07:45:27;98082.08;;;10.42;94.88
62038;BME280;47991;42.974;12.082;2022-12-05T07:47:54;98082.45;;;10.49;95.03
62038;BME280;47991;42.974;12.082;2022-12-05T07:50:20;98084.02;;;10.57;94.51
62038;BME280;47991;42.974;12.082;2022-12-05T07:52:47;98087.64;;;10.69;94.30
62038;BME280;47991;42.974;12.082;2022-12-05T07:55:14;98089.19;;;10.78;93.82
62038;BME280;47991;42.974;12.082;2022-12-05T07:57:41;98092.33;;;10.88;93.42
62038;BME280;47991;42.974;12.082;2022-12-05T08:00:08;98098.77;;;10.92;92.61
62038;BME280;47991;42.974;12.082;2022-12-05T08:02:38;98096.17;;;11.04;91.95
62038;BME280;47991;42.974;12.082;2022-12-05T08:05:05;98102.63;;;11.08;90.98
62038;BME280;47991;42.974;12.082;2022-12-05T08:07:32;98106.33;;;11.16;90.31
62038;BME280;47991;42.974;12.082;2022-12-05T08:09:59;98108.09;;;11.16;90.21
62038;BME280;47991;42.974;12.082;2022-12-05T08:12:25;98102.65;;;11.14;89.95
62038;BME280;47991;42.974;12.082;2022-12-05T08:14:52;98111.77;;;11.10;89.66
62038;BME280;47991;42.974;12.082;2022-12-05T08:17:18;98112.50;;;11.01;89.85
62038;BME280;47991;42.974;12.082;2022-12-05T08:19:45;98114.35;;;11.06;90.12
62038;BME280;47991;42.974;12.082;2022-12-05T08:22:12;98119.70;;;11.25;89.65
62038;BME280;47991;42.974;12.082;2022-12-05T08:24:39;98118.40;;;11.34;89.47
62038;BME280;47991;42.974;12.082;2022-12-05T08:27:06;98118.20;;;11.28;89.48
62038;BME280;47991;42.974;12.082;2022-12-05T08:29:33;98122.35;;;11.59;88.42
62038;BME280;47991;42.974;12.082;2022-12-05T08:31:59;98124.08;;;11.81;86.93
62038;BME280;47991;42.974;12.082;2022-12-05T08:34:26;98125.08;;;11.97;85.99
62038;BME280;47991;42.974;12.082;2022-12-05T08:36:53;98123.28;;;11.98;86.08
62038;BME280;47991;42.974;12.082;2022-12-05T08:39:19;98128.19;;;12.12;85.72
62038;BME280;47991;42.974;12.082;2022-12-05T08:41:47;98126.73;;;12.38;85.10
62038;BME280;47991;42.974;12.082;2022-12-05T08:44:14;98118.80;;;12.48;84.30
62038;BME280;47991;42.974;12.082;2022-12-05T08:46:43;98127.41;;;12.44;83.64
62038;BME280;47991;42.974;12.082;2022-12-05T08:49:11;98132.76;;;12.32;82.94
62038;BME280;47991;42.974;12.082;2022-12-05T08:51:40;98131.66;;;12.45;83.02
62038;BME280;47991;42.974;12.082;2022-12-05T08:54:07;98134.57;;;12.54;82.37
62038;BME280;47991;42.974;12.082;2022-12-05T08:56:34;98134.08;;;12.98;82.08
62038;BME280;47991;42.974;12.082;2022-12-05T08:59:01;98137.63;;;13.53;80.52
62038;BME280;47991;42.974;12.082;2022-12-05T09:06:06;98127.77;;;14.40;76.00
62038;BME280;47991;42.974;12.082;2022-12-05T09:08:34;98119.71;;;15.14;74.91
62038;BME280;47991;42.974;12.082;2022-12-05T09:11:13;98115.47;;;16.16;69.26
62038;BME280;47991;42.974;12.082;2022-12-05T09:13:41;98118.48;;;16.79;66.69
62038;BME280;47991;42.974;12.082;2022-12-05T09:16:16;98119.57;;;16.75;66.13
62038;BME280;47991;42.974;12.082;2022-12-05T09:18:43;98115.08;;;15.89;68.96
62038;BME280;47991;42.974;12.082;2022-12-05T09:21:12;98120.04;;;15.36;70.80
62038;BME280;47991;42.974;12.082;2022-12-05T09:23:40;98118.10;;;15.44;72.00
62038;BME280;47991;42.974;12.082;2022-12-05T09:26:10;98118.80;;;15.86;70.17
62038;BME280;47991;42.974;12.082;2022-12-05T09:28:38;98120.91;;;15.49;70.08
62038;BME280;47991;42.974;12.082;2022-12-05T09:31:08;98119.73;;;15.09;71.83
62038;BME280;47991;42.974;12.082;2022-12-05T09:33:37;98124.13;;;14.84;72.97
62038;BME280;47991;42.974;12.082;2022-12-05T09:36:12;98121.70;;;14.35;73.32
62038;BME280;47991;42.974;12.082;2022-12-05T09:38:40;98119.05;;;14.44;73.91
62038;BME280;47991;42.974;12.082;2022-12-05T09:46:22;98088.08;;;18.83;61.86
62038;BME280;47991;42.974;12.082;2022-12-05T09:48:55;98075.81;;;20.55;58.09
62038;BME280;47991;42.974;12.082;2022-12-05T09:51:25;98076.09;;;20.86;55.21
62038;BME280;47991;42.974;12.082;2022-12-05T09:53:52;98072.78;;;20.85;55.82
62038;BME280;47991;42.974;12.082;2022-12-05T09:56:29;98064.73;;;22.23;51.85
62038;BME280;47991;42.974;12.082;2022-12-05T09:58:57;98068.50;;;23.10;50.63
62038;BME280;47991;42.974;12.082;2022-12-05T10:07:11;98068.33;;;23.35;47.26
62038;BME280;47991;42.974;12.082;2022-12-05T10:12:56;98077.85;;;20.82;51.48
62038;BME280;47991;42.974;12.082;2022-12-05T10:15:31;98077.33;;;19.99;55.70
62038;BME280;47991;42.974;12.082;2022-12-05T10:21:31;98075.36;;;17.60;59.12
62038;BME280;47991;42.974;12.082;2022-12-05T10:23:49;98082.77;;;16.94;61.79
62038;BME280;47991;42.974;12.082;2022-12-05T10:26:20;98075.45;;;16.71;63.27
62038;BME280;47991;42.974;12.082;2022-12-05T10:31:36;98071.64;;;16.35;63.69
62038;BME280;47991;42.974;12.082;2022-12-05T10:36:55;98067.73;;;15.84;64.95
62038;BME280;47991;42.974;12.082;2022-12-05T10:39:23;98061.87;;;15.43;65.82
62038;BME280;47991;42.974;12.082;2022-12-05T10:41:50;98056.77;;;15.16;66.75
62038;BME280;47991;42.974;12.082;2022-12-05T10:44:17;98046.18;;;15.38;66.28
62038;BME280;47991;42.974;12.082;2022-12-05T10:46:44;98051.61;;;15.53;66.08
62038;BME280;47991;42.974;12.082;2022-12-05T10:49:12;98049.38;;;15.63;65.57
62038;BME280;47991;42.974;12.082;2022-12-05T10:51:39;98049.29;;;15.61;65.63
62038;BME280;47991;42.974;12.082;2022-12-05T10:54:19;98046.23;;;15.70;66.45
62038;BME280;47991;42.974;12.082;2022-12-05T10:56:49;98042.05;;;15.64;65.55
62038;BME280;47991;42.974;12.082;2022-12-05T10:59:24;98038.84;;;15.84;65.44
62038;BME280;47991;42.974;12.082;2022-12-05T11:01:56;98037.77;;;15.68;65.11
62038;BME280;47991;42.974;12.082;2022-12-05T11:04:31;98036.05;;;15.46;65.76
62038;BME280;47991;42.974;12.082;2022-12-05T11:09:49;98042.17;;;14.81;68.13
62038;BME280;47991;42.974;12.082;2022-12-05T11:12:22;98040.05;;;14.76;68.09
62038;BME280;47991;42.974;12.082;2022-12-05T11:17:32;98041.08;;;14.59;68.43
62038;BME280;47991;42.974;12.082;2022-12-05T11:19:59;98039.59;;;14.56;68.59
62038;BME280;47991;42.974;12.082;2022-12-05T11:22:32;98038.23;;;14.32;70.24
62038;BME280;47991;42.974;12.082;2022-12-05T11:25:00;98032.65;;;14.29;70.36
62038;BME280;47991;42.974;12.082;2022-12-05T11:27:30;98033.84;;;14.08;71.77
62038;BME280;47991;42.974;12.082;2022-12-05T11:30:19;98027.71;;;14.14;71.17
62038;BME280;47991;42.974;12.082;2022-12-05T11:32:47;98025.16;;;14.16;71.13
62038;BME280;47991;42.974;12.082;2022-12-05T11:40:38;98011.21;;;13.76;72.53
62038;BME280;47991;42.974;12.082;2022-12-05T11:51:43;98002.42;;;13.59;73.39
62038;BME280;47991;42.974;12.082;2022-12-05T11:54:37;97992.15;;;13.53;74.21
62038;BME280;47991;42.974;12.082;2022-12-05T12:05:37;97980.27;;;13.38;75.53
62038;BME280;47991;42.974;12.082;2022-12-05T12:08:23;97982.53;;;13.29;75.83
62038;BME280;47991;42.974;12.082;2022-12-05T12:30:29;97973.00;;;13.02;79.39
62038;BME280;47991;42.974;12.082;2022-12-05T12:33:14;97970.48;;;12.98;80.14
62038;BME280;47991;42.974;12.082;2022-12-05T12:36:06;97966.89;;;12.84;81.03
62038;BME280;47991;42.974;12.082;2022-12-05T12:44:23;97964.63;;;12.61;82.50
62038;BME280;47991;42.974;12.082;2022-12-05T12:46:58;97961.05;;;12.62;81.37
62038;BME280;47991;42.974;12.082;2022-12-05T12:56:04;97954.02;;;12.65;81.77
62038;BME280;47991;42.974;12.082;2022-12-05T12:58:46;97951.02;;;12.71;83.81
62038;BME280;47991;42.974;12.082;2022-12-05T13:04:05;97951.68;;;12.82;83.51
62038;BME280;47991;42.974;12.082;2022-12-05T13:06:46;97952.25;;;12.86;82.87
62038;BME280;47991;42.974;12.082;2022-12-05T13:09:39;97948.30;;;12.82;83.10
62038;BME280;47991;42.974;12.082;2022-12-05T13:12:14;97942.64;;;12.87;83.09
62038;BME280;47991;42.974;12.082;2022-12-05T13:14:52;97939.49;;;12.91;82.25
62038;BME280;47991;42.974;12.082;2022-12-05T13:17:21;97940.90;;;12.91;82.49
62038;BME280;47991;42.974;12.082;2022-12-05T13:19:50;97943.06;;;12.85;83.16
62038;BME280;47991;42.974;12.082;2022-12-05T13:22:19;97939.29;;;12.86;82.77
62038;BME280;47991;42.974;12.082;2022-12-05T13:24:50;97940.73;;;12.86;82.72
62038;BME280;47991;42.974;12.082;2022-12-05T13:27:21;97942.03;;;12.79;83.51
62038;BME280;47991;42.974;12.082;2022-12-05T13:30:02;97944.59;;;12.82;83.02
62038;BME280;47991;42.974;12.082;2022-12-05T13:32:35;97943.79;;;12.84;82.74
62038;BME280;47991;42.974;12.082;2022-12-05T13:35:18;97941.69;;;12.89;82.65
62038;BME280;47991;42.974;12.082;2022-12-05T13:38:05;97942.30;;;12.86;83.39
62038;BME280;47991;42.974;12.082;2022-12-05T13:40:51;97942.42;;;12.88;82.91
62038;BME280;47991;42.974;12.082;2022-12-05T13:43:41;97939.70;;;12.95;81.80
62038;BME280;47991;42.974;12.082;2022-12-05T13:46:26;97943.55;;;12.96;82.02
62038;BME280;47991;42.974;12.082;2022-12-05T13:49:18;97942.48;;;12.97;81.77
62038;BME280;47991;42.974;12.082;2022-12-05T13:51:49;97945.09;;;12.93;82.78
62038;BME280;47991;42.974;12.082;2022-12-05T13:54:20;97949.77;;;12.91;82.30
62038;BME280;47991;42.974;12.082;2022-12-05T13:56:54;97952.87;;;12.89;82.43
62038;BME280;47991;42.974;12.082;2022-12-05T13:59:59;97949.30;;;12.80;83.24
62038;BME280;47991;42.974;12.082;2022-12-05T14:07:55;97949.20;;;12.82;83.19
62038;BME280;47991;42.974;12.082;2022-12-05T14:12:54;97947.73;;;12.73;85.59
62038;BME280;47991;42.974;12.082;2022-12-05T14:15:25;97944.10;;;12.76;84.39
62038;BME280;47991;42.974;12.082;2022-12-05T14:17:59;97942.89;;;12.69;85.11
62038;BME280;47991;42.974;12.082;2022-12-05T14:20:49;97944.40;;;12.72;84.70
62038;BME280;47991;42.974;12.082;2022-12-05T14:29:11;97940.52;;;12.87;83.62
62038;BME280;47991;42.974;12.082;2022-12-05T14:34:31;97934.19;;;12.90;83.24
62038;BME280;47991;42.974;12.082;2022-12-05T14:39:42;97933.21;;;12.98;82.32
62038;BME280;47991;42.974;12.082;2022-12-05T14:42:35;97936.92;;;12.98;82.19
62038;BME280;47991;42.974;12.082;2022-12-05T14:45:33;97938.18;;;13.03;81.58
62038;BME280;47991;42.974;12.082;2022-12-05T14:48:05;97936.95;;;13.02;81.22
62038;BME280;47991;42.974;12.082;2022-12-05T14:50:51;97937.05;;;13.04;80.48
62038;BME280;47991;42.974;12.082;2022-12-05T14:53:38;97937.98;;;13.08;80.21
62038;BME280;47991;42.974;12.082;2022-12-05T14:56:44;97939.15;;;13.00;80.87
62038;BME280;47991;42.974;12.082;2022-12-05T14:59:28;97939.05;;;12.99;80.84
62038;BME280;47991;42.974;12.082;2022-12-05T15:01:59;97933.71;;;12.99;80.21
62038;BME280;47991;42.974;12.082;2022-12-05T15:04:37;97934.45;;;12.98;80.15
62038;BME280;47991;42.974;12.082;2022-12-05T15:10:01;97928.92;;;12.94;80.06
62038;BME280;47991;42.974;12.082;2022-12-05T15:17:52;97926.57;;;12.85;79.64
62038;BME280;47991;42.974;12.082;2022-12-05T15:20:36;97919.86;;;12.84;79.58
62038;BME280;47991;42.974;12.082;2022-12-05T15:28:40;97920.52;;;12.75;79.71
62038;BME280;47991;42.974;12.082;2022-12-05T15:31:11;97923.81;;;12.72;79.72
62038;BME280;47991;42.974;12.082;2022-12-05T15:33:49;97924.45;;;12.69;79.79
62038;BME280;47991;42.974;12.082;2022-12-05T15:36:19;97923.33;;;12.60;80.31
62038;BME280;47991;42.974;12.082;2022-12-05T15:38:49;97924.63;;;12.58;80.51
62038;BME280;47991;42.974;12.082;2022-12-05T15:41:16;97927.52;;;12.52;80.89